Time;durP1;ratioP1;P1;durP2;ratioP2;P2;SDS_P1;SDS_P2;PMS_P1;PMS_P2;Temp;Humidity;BMP_temperature;BMP_pressure;BME280_temperature;BME280_humidity;BME280_pressure;Samples;Min_cycle;Max_cycle;Signal;HPM_P1;HPM_P2
2021/06/18 00:04:49;;;;;;;4.25;3.70;;;;;;;22.56;49.52;100973.81;5009998;57;1139049;-77
2021/06/18 00:09:55;;;;;;;5.35;3.83;;;;;;;22.50;49.40;100973.20;5009783;57;1139079;-81
2021/06/18 00:15:01;;;;;;;8.05;4.37;;;;;;;22.44;49.51;100964.02;5010228;57;1139021;-74
2021/06/18 00:20:09;;;;;;;6.50;4.17;;;;;;;22.41;49.72;100974.65;5009792;57;1138830;-77
2021/06/18 00:25:15;;;;;;;9.33;4.50;;;;;;;22.37;49.76;100977.89;4917476;59;1139087;-78
2021/06/18 00:30:22;;;;;;;7.28;3.92;;;;;;;22.30;49.95;100980.50;4917349;59;1138788;-80
2021/06/18 00:35:28;;;;;;;5.85;3.92;;;;;;;22.23;50.20;100980.05;4914287;58;1138818;-75
2021/06/18 00:40:34;;;;;;;8.80;5.05;;;;;;;22.18;50.34;100976.55;4917280;59;1138750;-79
2021/06/18 00:45:40;;;;;;;10.82;4.62;;;;;;;22.16;50.32;100972.36;4917379;59;1138875;-78
2021/06/18 00:50:46;;;;;;;10.43;4.42;;;;;;;22.17;50.46;100976.73;4914051;58;1140936;-76
2021/06/18 00:55:52;;;;;;;12.37;4.03;;;;;;;22.12;50.54;100975.95;4939870;58;1140956;-80
2021/06/18 01:00:58;;;;;;;10.93;4.15;;;;;;;22.02;50.67;100976.20;4979685;58;1140897;-77
2021/06/18 01:06:04;;;;;;;7.02;4.22;;;;;;;21.95;50.69;100968.50;4976640;58;1140925;-80
2021/06/18 01:11:48;;;;;;;6.17;4.33;;;;;;;21.91;50.78;100975.77;4980283;57;1138954;-78
2021/06/18 01:17:13;;;;;;;10.35;4.95;;;;;;;21.89;50.94;100959.79;4979987;58;1138419;-75
2021/06/18 01:22:25;;;;;;;9.05;4.20;;;;;;;21.84;51.02;100953.30;4976259;58;1140468;-79
2021/06/18 01:27:47;;;;;;;13.05;4.53;;;;;;;21.81;51.17;100955.84;4979874;58;1138795;-78
2021/06/18 01:33:06;;;;;;;6.33;4.70;;;;;;;21.69;51.32;100950.02;4979913;58;1140983;-74
2021/06/18 01:38:13;;;;;;;6.00;4.10;;;;;;;21.51;51.27;100937.40;4976614;58;1138930;-80
2021/06/18 01:43:22;;;;;;;6.25;3.98;;;;;;;21.48;52.08;100953.91;4979922;58;1138903;-79
2021/06/18 01:48:29;;;;;;;6.50;5.17;;;;;;;21.37;52.19;100943.56;4896671;59;1138399;-78
2021/06/18 01:53:36;;;;;;;8.00;5.08;;;;;;;21.31;52.32;100944.27;4979724;58;1138426;-78
2021/06/18 01:58:45;;;;;;;15.58;4.85;;;;;;;21.24;52.73;100945.47;4937494;58;1138529;-82
2021/06/18 02:03:53;;;;;;;12.85;4.60;;;;;;;21.16;52.83;100942.81;4986973;58;1140974;-77
2021/06/18 02:09:02;;;;;;;9.10;4.95;;;;;;;21.10;53.01;100946.70;4894366;59;1140398;-79
2021/06/18 02:14:15;;;;;;;8.00;5.08;;;;;;;21.04;53.26;100939.70;4894620;59;1138374;-79
2021/06/18 02:19:24;;;;;;;12.73;4.93;;;;;;;20.96;53.53;100947.79;4987266;58;1138306;-79
2021/06/18 02:24:32;;;;;;;6.55;4.85;;;;;;;20.93;53.57;100948.13;4894277;58;1140330;-80
2021/06/18 02:29:38;;;;;;;9.83;4.95;;;;;;;20.89;53.84;100948.17;4894479;59;1138291;-80
2021/06/18 02:34:45;;;;;;;12.73;5.17;;;;;;;20.82;54.27;100947.69;4987719;58;1138994;-77
2021/06/18 02:39:51;;;;;;;8.45;5.12;;;;;;;20.77;53.97;100948.24;4894966;59;1140463;-75
2021/06/18 02:44:56;;;;;;;7.70;4.90;;;;;;;20.75;54.12;100936.82;4863649;59;1138476;-80
2021/06/18 02:50:13;;;;;;;10.20;5.03;;;;;;;20.71;54.16;100948.42;4895083;59;1138501;-80
2021/06/18 02:55:42;;;;;;;6.85;4.95;;;;;;;20.71;54.15;100952.45;4894971;59;1141105;-78
2021/06/18 03:00:50;;;;;;;11.18;5.15;;;;;;;20.72;54.26;100951.95;4987892;58;1138546;-77
2021/06/18 03:05:59;;;;;;;15.18;5.62;;;;;;;20.71;54.30;100947.08;4894912;59;1140547;-77
2021/06/18 03:11:05;;;;;;;17.17;5.25;;;;;;;20.72;54.23;100965.39;4863386;59;1140935;-77
2021/06/18 03:16:13;;;;;;;16.50;5.83;;;;;;;20.73;54.19;100971.61;4894981;59;1140850;-78
2021/06/18 03:21:19;;;;;;;9.88;5.17;;;;;;;20.73;54.20;100970.26;4894839;59;1140872;-78
2021/06/18 03:26:25;;;;;;;10.72;5.50;;;;;;;20.75;54.33;100984.37;4987614;58;1138880;-76
2021/06/18 03:31:32;;;;;;;9.68;5.80;;;;;;;20.69;54.29;100977.83;4894736;59;1140934;-73
2021/06/18 03:36:39;;;;;;;6.30;5.30;;;;;;;20.69;54.79;100976.48;4894919;59;1138834;-77
2021/06/18 03:41:45;;;;;;;6.42;5.10;;;;;;;20.67;54.64;100975.81;4987817;57;1139035;-81
2021/06/18 03:46:52;;;;;;;7.67;5.45;;;;;;;20.69;54.67;100981.86;4895566;59;1138807;-86
2021/06/18 03:51:59;;;;;;;5.87;4.92;;;;;;;20.71;54.85;100981.19;4895400;59;1138822;-85
2021/06/18 03:57:07;;;;;;;5.83;4.60;;;;;;;20.72;54.62;100984.20;4988293;58;1138937;-78
2021/06/18 04:02:16;;;;;;;7.70;4.33;;;;;;;20.76;54.83;100990.08;4895646;58;1138949;-87
2021/06/18 04:07:23;;;;;;;7.28;4.85;;;;;;;20.80;54.53;100992.73;4895543;59;1138812;-86
2021/06/18 04:12:30;;;;;;;7.37;5.03;;;;;;;20.90;54.49;100992.87;4988313;58;1138949;-81
2021/06/18 04:17:36;;;;;;;11.68;4.92;;;;;;;20.97;54.18;100995.69;4895432;59;1138800;-84
2021/06/18 04:22:43;;;;;;;5.35;4.85;;;;;;;21.06;54.18;100998.19;4895362;59;1140942;-82
2021/06/18 04:27:48;;;;;;;8.23;4.47;;;;;;;21.15;54.06;100999.47;4987684;58;1139063;-81
2021/06/18 04:32:54;;;;;;;6.33;4.67;;;;;;;21.22;53.74;100997.30;4895381;59;1138836;-77
2021/06/18 04:38:01;;;;;;;14.53;3.98;;;;;;;21.28;53.49;100993.88;4895637;59;1138820;-80
2021/06/18 04:43:07;;;;;;;11.40;4.40;;;;;;;21.34;53.33;100991.00;4987932;56;1140522;-88
2021/06/18 04:48:14;;;;;;;5.85;4.65;;;;;;;21.42;53.21;100985.55;4895238;59;1140859;-80
2021/06/18 04:53:20;;;;;;;8.77;4.37;;;;;;;21.48;53.02;100985.36;4895567;59;1138472;-78
2021/06/18 04:58:26;;;;;;;9.53;4.62;;;;;;;21.55;53.14;100986.30;4964454;57;1138888;-79
2021/06/18 05:03:32;;;;;;;7.87;4.33;;;;;;;21.62;52.96;100982.73;4956843;58;1138859;-79
2021/06/18 05:08:38;;;;;;;7.47;4.60;;;;;;;21.69;52.89;100980.17;4935354;57;1138760;-80
2021/06/18 05:13:43;;;;;;;6.87;4.55;;;;;;;21.78;52.91;100982.28;4940136;57;1138577;-82
2021/06/18 05:18:49;;;;;;;6.95;4.15;;;;;;;21.86;52.67;100973.61;4937695;58;1138513;-77
2021/06/18 05:23:55;;;;;;;13.43;5.33;;;;;;;21.96;52.76;100966.64;4940060;58;1138654;-83
2021/06/18 05:29:01;;;;;;;11.40;4.40;;;;;;;22.09;52.82;100969.07;4948859;57;1140818;-79
2021/06/18 05:34:07;;;;;;;6.62;3.95;;;;;;;22.26;52.38;100971.10;4953253;58;1140954;-76
2021/06/18 05:39:15;;;;;;;98.22;7.40;;;;;;;22.41;52.06;100969.77;4944212;57;1138681;-79
2021/06/18 05:44:21;;;;;;;10.15;4.03;;;;;;;22.56;52.09;100969.26;4941104;57;1140779;-81
2021/06/18 05:49:28;;;;;;;7.85;3.85;;;;;;;22.68;51.98;100973.66;4749636;60;1140779;-80
2021/06/18 05:54:34;;;;;;;5.55;3.87;;;;;;;22.84;51.94;100983.45;4744477;59;1138849;-79
2021/06/18 05:59:40;;;;;;;6.95;4.92;;;;;;;23.01;51.55;100982.22;4843472;59;1138693;-81
2021/06/18 06:04:46;;;;;;;9.85;4.58;;;;;;;23.14;51.02;100983.73;4808926;59;1138815;-78
2021/06/18 06:09:51;;;;;;;10.20;4.22;;;;;;;23.28;50.97;100992.30;4858413;59;1138613;-80
2021/06/18 06:14:57;;;;;;;9.43;3.83;;;;;;;23.46;50.77;100991.37;4852388;59;1140836;-75
2021/06/18 06:20:05;;;;;;;5.97;4.28;;;;;;;23.61;50.45;100995.39;4771875;60;1138876;-76
2021/06/18 06:25:12;;;;;;;10.16;4.50;;;;;;;23.78;50.61;100992.77;4786165;59;1138861;-81
2021/06/18 06:30:18;;;;;;;4.78;4.22;;;;;;;23.97;50.39;100988.58;4771853;59;1140810;-78
2021/06/18 06:35:24;;;;;;;4.97;4.47;;;;;;;24.08;50.05;100989.90;4778632;59;1138692;-80
2021/06/18 06:40:30;;;;;;;5.87;4.20;;;;;;;24.19;49.30;100990.19;4783261;59;1138819;-83
2021/06/18 06:45:36;;;;;;;51.15;6.78;;;;;;;24.35;48.96;100986.91;4759233;59;1138864;-76
2021/06/18 06:50:43;;;;;;;5.62;4.40;;;;;;;24.49;48.86;100988.14;4771177;59;1140758;-78
2021/06/18 06:55:48;;;;;;;4.08;3.78;;;;;;;24.63;49.20;100981.45;4748147;59;1138730;-82
2021/06/18 07:00:54;;;;;;;19.02;5.15;;;;;;;24.84;48.98;100983.56;4747968;59;1138603;-77
2021/06/18 07:06:00;;;;;;;6.22;4.60;;;;;;;25.09;48.04;100985.25;4748032;59;1140914;-80
2021/06/18 07:11:07;;;;;;;5.45;4.37;;;;;;;25.28;48.08;100975.53;4789475;59;1138764;-76
2021/06/18 07:16:13;;;;;;;14.93;3.90;;;;;;;25.45;46.60;100977.34;4783082;60;1138678;-81
2021/06/18 07:21:18;;;;;;;5.45;3.72;;;;;;;25.61;46.28;100981.03;4870714;58;1140725;-77
2021/06/18 07:26:25;;;;;;;5.45;4.08;;;;;;;25.74;45.96;100976.17;4785475;59;1138978;-80
2021/06/18 07:31:30;;;;;;;5.87;4.03;;;;;;;25.99;45.00;100971.80;4839933;59;1138742;-73
2021/06/18 07:36:36;;;;;;;4.65;4.20;;;;;;;25.99;45.00;100971.80;4848896;59;1139115;-81
2021/06/18 07:41:43;;;;;;;6.50;3.85;;;;;;;26.19;44.47;100981.28;4855795;59;1138648;-78
2021/06/18 07:46:49;;;;;;;4.62;3.70;;;;;;;26.33;44.93;100980.77;4866574;59;1138652;-80
2021/06/18 07:51:55;;;;;;;9.03;4.50;;;;;;;26.50;43.80;100977.93;4878271;59;1138582;-77
2021/06/18 07:57:01;;;;;;;10.35;3.60;;;;;;;26.66;43.86;100973.41;4845548;59;1138637;-82
2021/06/18 08:02:08;;;;;;;6.30;3.55;;;;;;;26.84;41.93;100972.72;4842846;59;1140898;-78
2021/06/18 08:07:14;;;;;;;5.15;3.45;;;;;;;26.83;41.36;100956.96;4900386;57;1138790;-78
2021/06/18 08:12:21;;;;;;;4.28;3.35;;;;;;;27.06;39.84;100951.03;4766733;60;1138676;-80
2021/06/18 08:17:27;;;;;;;6.78;3.42;;;;;;;27.22;39.74;100951.05;4858089;59;1138743;-78
2021/06/18 08:22:34;;;;;;;6.45;3.42;;;;;;;27.42;41.09;100950.41;4754190;59;1138920;-82
2021/06/18 08:27:40;;;;;;;2.67;2.50;;;;;;;27.56;38.43;100943.00;4780165;59;1138869;-77
2021/06/18 08:32:46;;;;;;;5.37;2.90;;;;;;;27.60;37.06;100951.89;4774778;59;1138864;-77
2021/06/18 08:37:52;;;;;;;7.15;2.72;;;;;;;27.60;37.06;100951.89;4761516;59;1138733;-80
2021/06/18 08:42:59;;;;;;;3.22;3.00;;;;;;;27.64;36.68;100946.86;4752666;59;1139039;-82
2021/06/18 08:48:06;;;;;;;4.12;2.47;;;;;;;27.71;36.72;100949.51;4749570;60;1138877;-78
2021/06/18 08:53:14;;;;;;;4.62;2.60;;;;;;;27.84;36.98;100952.95;4776081;59;1138687;-83
2021/06/18 08:58:21;;;;;;;3.13;2.70;;;;;;;28.00;34.73;100925.73;4793595;59;1138799;-82
2021/06/18 09:03:45;;;;;;;2.22;2.02;;;;;;;27.99;35.26;100924.89;4765277;59;1138684;-79
2021/06/18 09:09:21;;;;;;;2.83;2.55;;;;;;;28.17;34.39;100938.23;4788780;59;1138824;-76
2021/06/18 09:14:36;;;;;;;4.08;2.95;;;;;;;28.35;35.45;100932.31;4785511;60;1138725;-78
2021/06/18 09:20:04;;;;;;;3.98;2.62;;;;;;;28.54;35.73;100929.61;4788557;60;1138565;-76
2021/06/18 09:25:19;;;;;;;3.50;3.12;;;;;;;28.66;34.96;100925.06;4801068;60;1138723;-77
2021/06/18 09:30:31;;;;;;;14.68;3.27;;;;;;;28.79;35.80;100924.06;4826544;58;1138764;-76
2021/06/18 09:35:37;;;;;;;16.23;3.22;;;;;;;28.94;33.19;100925.89;4817977;59;1140701;-74
2021/06/18 09:40:43;;;;;;;13.15;3.42;;;;;;;29.06;32.19;100917.23;4838563;58;1140708;-82
2021/06/18 09:45:49;;;;;;;6.28;3.20;;;;;;;29.23;33.25;100917.41;4835232;59;1140668;-78
2021/06/18 09:51:02;;;;;;;4.60;2.92;;;;;;;29.35;32.52;100920.47;4739189;59;1138603;-80
2021/06/18 09:56:13;;;;;;;8.00;2.60;;;;;;;29.48;32.16;100908.59;4797812;60;1138717;-80
2021/06/18 10:01:32;;;;;;;3.00;2.80;;;;;;;29.57;30.69;100901.72;4630587;62;1139003;-86
2021/06/18 10:06:40;;;;;;;2.72;2.22;;;;;;;29.73;32.08;100905.13;4786406;60;1139046;-81
2021/06/18 10:11:46;;;;;;;2.27;2.10;;;;;;;29.91;30.66;100905.55;4818043;59;1138855;-76
2021/06/18 10:16:52;;;;;;;2.58;2.45;;;;;;;29.93;30.70;100893.88;4807451;59;1138693;-80
2021/06/18 10:22:24;;;;;;;5.05;2.42;;;;;;;29.99;30.58;100892.94;4806454;59;1138716;-81
2021/06/18 10:27:35;;;;;;;4.28;2.45;;;;;;;30.19;31.00;100894.48;4806354;59;1139087;-83
2021/06/18 10:32:44;;;;;;;5.25;2.05;;;;;;;30.31;30.82;100887.92;4857092;57;1138657;-82
2021/06/18 10:37:50;;;;;;;7.22;3.02;;;;;;;30.50;30.24;100887.23;4918744;57;1138609;-77
2021/06/18 10:43:15;;;;;;;8.20;2.27;;;;;;;30.62;30.65;100880.41;4917562;57;1138582;-78
2021/06/18 10:48:42;;;;;;;7.30;2.60;;;;;;;30.69;30.13;100870.19;4983991;57;1138732;-78
2021/06/18 10:53:54;;;;;;;5.85;2.30;;;;;;;30.85;30.20;100870.78;4921488;57;1138538;-80
2021/06/18 10:59:09;;;;;;;5.65;2.62;;;;;;;31.07;29.73;100875.00;4919609;57;1139026;-77
2021/06/18 11:04:17;;;;;;;6.17;2.62;;;;;;;31.26;30.56;100869.64;4956970;57;1138813;-80
2021/06/18 11:09:45;;;;;;;7.03;2.98;;;;;;;31.36;29.90;100862.97;4992126;57;1138784;-79
2021/06/18 11:14:57;;;;;;;4.25;3.05;;;;;;;31.54;30.66;100861.07;4942925;57;1138652;-75
2021/06/18 11:20:06;;;;;;;5.83;2.90;;;;;;;31.73;30.02;100855.67;4942004;57;1138630;-78
2021/06/18 11:25:43;;;;;;;4.30;3.02;;;;;;;31.79;29.08;100848.64;4970589;58;1138866;-79
2021/06/18 11:30:58;;;;;;;6.33;2.72;;;;;;;31.84;28.92;100856.11;4959438;56;1138652;-75
2021/06/18 11:36:07;;;;;;;7.25;2.83;;;;;;;31.95;29.03;100840.12;4938804;57;1138656;-83
2021/06/18 11:41:15;;;;;;;3.33;3.05;;;;;;;31.99;28.78;100839.08;4946371;57;1138804;-82
2021/06/18 11:46:24;;;;;;;6.57;2.50;;;;;;;32.14;29.61;100836.01;4984562;57;1138851;-78
2021/06/18 11:51:31;;;;;;;24.82;3.87;;;;;;;32.32;29.66;100837.64;4993312;57;1138815;-79
2021/06/18 11:56:38;;;;;;;2.75;2.55;;;;;;;32.52;29.20;100836.23;4983437;57;1140690;-77
2021/06/18 12:01:44;;;;;;;3.75;3.10;;;;;;;32.55;26.86;100835.16;4929995;57;1138759;-81
2021/06/18 12:06:50;;;;;;;5.00;2.87;;;;;;;32.53;28.67;100831.05;4994248;57;1138781;-79
2021/06/18 12:12:01;;;;;;;6.95;3.22;;;;;;;32.53;27.03;100829.68;4964020;57;1138837;-75
2021/06/18 12:17:06;;;;;;;;;;;;;;;32.56;27.54;100819.02;4966882;58;1138751;-76
2021/06/18 12:22:22;;;;;;;4.12;3.10;;;;;;;32.49;27.03;100827.98;4998427;58;975956;-76
2021/06/18 12:27:34;;;;;;;2.92;2.55;;;;;;;32.57;27.85;100834.37;4971351;58;1136799;-79
2021/06/18 12:32:40;;;;;;;3.12;2.92;;;;;;;32.64;27.91;100825.42;4946442;58;1138701;-83
2021/06/18 12:37:54;;;;;;;6.90;3.35;;;;;;;32.82;27.67;100826.47;4954267;58;1138692;-76
2021/06/18 12:43:12;;;;;;;3.58;2.50;;;;;;;32.90;26.73;100827.08;4890413;59;1138629;-75
2021/06/18 12:48:32;;;;;;;9.33;2.70;;;;;;;32.83;26.68;100809.49;4811021;60;1138820;-75
2021/06/18 12:53:44;;;;;;;5.90;2.97;;;;;;;32.97;27.67;100810.72;4822056;59;1138678;-75
2021/06/18 12:58:54;;;;;;;3.08;2.42;;;;;;;33.01;26.14;100809.09;4879639;58;1138898;-83
2021/06/18 13:04:01;;;;;;;2.80;2.60;;;;;;;33.07;26.10;100808.06;4891511;59;1138612;-79
2021/06/18 13:09:07;;;;;;;33.30;3.55;;;;;;;33.03;26.58;100800.07;4799833;58;1138818;-80
2021/06/18 13:14:23;;;;;;;8.88;2.67;;;;;;;33.05;26.74;100792.42;4787734;59;1140777;-78
2021/06/18 13:19:53;;;;;;;6.47;2.17;;;;;;;33.17;26.03;100802.66;4797848;58;1138977;-81
2021/06/18 13:25:12;;;;;;;4.92;2.65;;;;;;;33.23;25.15;100798.59;4774716;60;1138704;-84
2021/06/18 13:30:18;;;;;;;5.03;2.58;;;;;;;33.29;25.87;100791.56;4844299;59;1138880;-79
2021/06/18 13:35:29;;;;;;;7.33;2.87;;;;;;;33.44;25.49;100790.85;4753937;60;1138985;-80
2021/06/18 13:40:52;;;;;;;2.22;2.05;;;;;;;33.43;25.05;100789.20;4771848;60;1138663;-81
2021/06/18 13:45:58;;;;;;;8.63;2.50;;;;;;;33.41;24.76;100792.20;4808492;60;1138688;-79
2021/06/18 13:51:04;;;;;;;2.50;2.30;;;;;;;33.45;24.07;100792.51;4807800;58;1138621;-86
2021/06/18 13:56:10;;;;;;;6.50;2.33;;;;;;;33.45;24.35;100780.99;4795269;60;1138796;-78
2021/06/18 14:01:15;;;;;;;3.42;1.80;;;;;;;33.45;24.35;100780.99;4794797;60;1138730;-84
2021/06/18 14:06:23;;;;;;;6.62;2.15;;;;;;;33.49;23.54;100778.52;4871307;59;1138734;-78
2021/06/18 14:11:28;;;;;;;2.55;2.20;;;;;;;33.48;22.55;100779.06;4871273;59;1138916;-81
2021/06/18 14:16:42;;;;;;;6.58;2.30;;;;;;;33.33;21.03;100758.94;4786599;60;1138893;-78
2021/06/18 14:21:48;;;;;;;2.75;2.52;;;;;;;33.30;21.42;100754.02;4814326;60;1138642;-80
2021/06/18 14:26:54;;;;;;;2.83;2.50;;;;;;;33.23;21.73;100748.70;4753648;59;1138767;-83
2021/06/18 14:32:03;;;;;;;5.58;2.92;;;;;;;33.34;22.01;100738.66;4774631;59;1138901;-76
2021/06/18 14:37:09;;;;;;;2.47;2.27;;;;;;;33.41;22.01;100739.27;4812501;59;1138836;-82
2021/06/18 14:42:16;;;;;;;2.83;2.60;;;;;;;33.43;22.28;100741.20;4736125;60;1139008;-82
2021/06/18 14:47:22;;;;;;;3.15;2.85;;;;;;;33.53;23.30;100737.14;4753506;59;1138721;-78
2021/06/18 14:52:28;;;;;;;4.08;2.72;;;;;;;33.58;23.20;100728.95;4796470;59;1138781;-83
2021/06/18 14:57:34;;;;;;;3.93;2.57;;;;;;;33.67;23.26;100728.72;4813769;59;1138671;-87
2021/06/18 15:02:40;;;;;;;3.30;2.72;;;;;;;33.66;24.06;100724.86;4779854;59;1138737;-82
2021/06/18 15:07:47;;;;;;;3.42;2.62;;;;;;;33.64;23.25;100727.05;4764646;59;1138756;-80
2021/06/18 15:12:53;;;;;;;9.08;2.80;;;;;;;33.51;23.73;100724.23;4755931;59;1138661;-86
2021/06/18 15:17:59;;;;;;;6.78;3.00;;;;;;;33.48;23.68;100724.22;4812507;59;1138801;-79
2021/06/18 15:23:05;;;;;;;10.20;3.42;;;;;;;33.49;23.98;100719.02;4818387;59;1138926;-80
2021/06/18 15:28:11;;;;;;;6.28;2.87;;;;;;;33.52;23.71;100717.66;4771043;59;1140912;-80
2021/06/18 15:33:17;;;;;;;3.50;2.58;;;;;;;33.55;23.41;100714.39;4760659;59;1138954;-84
2021/06/18 15:38:23;;;;;;;10.83;3.10;;;;;;;33.49;23.59;100707.22;4819635;59;1138737;-78
2021/06/18 15:43:29;;;;;;;3.23;2.93;;;;;;;33.47;23.08;100698.42;4825673;60;1140887;-82
2021/06/18 15:48:36;;;;;;;13.87;2.63;;;;;;;33.42;23.48;100690.19;4826074;60;1138674;-80
2021/06/18 15:53:41;;;;;;;3.67;2.90;;;;;;;33.34;23.53;100695.62;4825544;60;1141133;-83
2021/06/18 15:58:48;;;;;;;6.03;2.67;;;;;;;33.32;23.76;100688.74;4804177;60;1138896;-83
2021/06/18 16:03:54;;;;;;;4.45;2.85;;;;;;;33.30;24.22;100686.30;4825732;60;1138816;-76
2021/06/18 16:09:00;;;;;;;8.68;4.40;;;;;;;33.32;23.75;100689.56;4825564;60;1138835;-78
2021/06/18 16:14:06;;;;;;;4.97;3.70;;;;;;;33.30;23.75;100685.47;4786050;60;1138887;-82
2021/06/18 16:19:17;;;;;;;6.12;3.02;;;;;;;33.20;24.42;100685.64;4751269;61;1138963;-77
2021/06/18 16:24:19;;;;;;;4.40;2.90;;;;;;;33.22;24.21;100689.48;4750887;61;1139071;-82
2021/06/18 16:29:26;;;;;;;4.75;3.08;;;;;;;33.17;24.58;100681.22;4751470;61;1138952;-80
2021/06/18 16:34:31;;;;;;;9.83;3.47;;;;;;;33.16;24.40;100685.88;4751264;61;1138984;-78
2021/06/18 16:39:38;;;;;;;5.90;3.72;;;;;;;33.14;24.70;100679.03;4751105;61;1138624;-76
2021/06/18 16:44:44;;;;;;;3.85;3.30;;;;;;;33.15;25.12;100679.31;4750990;61;1138932;-79
2021/06/18 16:49:49;;;;;;;5.03;2.95;;;;;;;33.19;24.33;100675.76;4751352;61;1138691;-81
2021/06/18 16:54:55;;;;;;;5.15;3.45;;;;;;;33.16;24.80;100677.65;4751149;61;1138919;-82
2021/06/18 17:00:02;;;;;;;6.75;3.20;;;;;;;33.13;24.87;100673.27;4750694;60;1138737;-81
2021/06/18 17:05:10;;;;;;;14.80;3.55;;;;;;;33.01;24.68;100671.23;4760888;60;1138713;-79
2021/06/18 17:10:23;;;;;;;7.75;4.45;;;;;;;32.83;24.53;100666.48;4850495;59;1141024;-81
2021/06/18 17:15:28;;;;;;;3.20;3.00;;;;;;;32.76;24.61;100674.63;4790801;59;1138864;-78
2021/06/18 17:20:34;;;;;;;9.90;3.40;;;;;;;32.68;25.24;100680.03;4776365;60;1138837;-81
2021/06/18 17:25:40;;;;;;;7.50;3.80;;;;;;;32.66;25.32;100682.20;4723224;61;1139132;-78
2021/06/18 17:30:46;;;;;;;6.50;4.78;;;;;;;32.64;25.75;100680.80;4772845;60;1138813;-81
2021/06/18 17:35:55;;;;;;;11.38;5.70;;;;;;;32.62;25.89;100685.16;4773161;59;1138695;-81
2021/06/18 17:41:04;;;;;;;6.28;4.22;;;;;;;32.54;26.15;100683.45;4769627;60;1140737;-79
2021/06/18 17:46:12;;;;;;;5.47;3.90;;;;;;;32.49;26.52;100678.75;4809053;59;1138622;-81
2021/06/18 17:51:17;;;;;;;13.28;4.05;;;;;;;32.40;26.98;100668.80;4772082;59;1138801;-80
2021/06/18 17:56:24;;;;;;;5.32;4.18;;;;;;;32.38;27.36;100668.80;4734656;60;1140930;-78
2021/06/18 18:01:30;;;;;;;8.80;3.40;;;;;;;32.30;27.61;100666.52;4735013;60;1139025;-80
2021/06/18 18:06:38;;;;;;;14.58;3.85;;;;;;;32.26;27.74;100672.21;4735129;60;1138804;-78
2021/06/18 18:11:44;;;;;;;12.70;4.40;;;;;;;32.22;28.04;100676.03;4737761;60;1140712;-80
2021/06/18 18:16:50;;;;;;;20.12;5.00;;;;;;;32.08;28.73;100666.55;4803853;60;1140776;-78
2021/06/18 18:21:57;;;;;;;30.48;5.28;;;;;;;31.92;29.42;100664.72;4803700;60;1140716;-78
2021/06/18 18:27:04;;;;;;;26.20;5.80;;;;;;;31.76;29.97;100666.45;4776282;60;1140782;-81
2021/06/18 18:32:09;;;;;;;36.13;7.33;;;;;;;31.59;30.51;100666.48;4766074;60;1140693;-81
2021/06/18 18:37:15;;;;;;;42.78;6.80;;;;;;;31.44;31.04;100671.75;4748105;59;1140821;-79
2021/06/18 18:42:21;;;;;;;28.67;5.08;;;;;;;31.36;31.49;100670.26;4753351;59;1140844;-77
2021/06/18 18:47:28;;;;;;;196.07;15.03;;;;;;;31.27;32.03;100673.15;4766628;59;1140689;-79
2021/06/18 18:52:34;;;;;;;48.45;6.58;;;;;;;31.22;32.63;100687.27;4743008;60;1145137;-80
2021/06/18 18:57:41;;;;;;;24.35;5.85;;;;;;;31.18;33.10;100681.47;4777959;60;1140756;-79
2021/06/18 19:02:47;;;;;;;37.03;5.92;;;;;;;31.12;33.66;100679.77;4768088;60;1140786;-79
2021/06/18 19:07:53;;;;;;;44.73;7.12;;;;;;;31.01;33.91;100686.92;4775067;60;1140803;-79
2021/06/18 19:13:01;;;;;;;46.18;7.87;;;;;;;30.86;35.07;100690.78;4732866;60;1140886;-80
2021/06/18 19:18:07;;;;;;;29.48;5.62;;;;;;;30.68;35.66;100695.97;4775377;59;1140820;-78
2021/06/18 19:23:13;;;;;;;24.80;6.55;;;;;;;30.51;36.40;100697.81;4778839;59;1140824;-79
2021/06/18 19:28:19;;;;;;;15.15;5.40;;;;;;;30.13;36.64;100701.18;4845817;59;1164876;-82
2021/06/18 19:33:25;;;;;;;44.32;6.66;;;;;;;29.84;37.64;100711.20;4851254;59;1140690;-80
2021/06/18 19:38:31;;;;;;;43.50;6.75;;;;;;;29.66;38.38;100713.55;4851294;59;1141078;-84
2021/06/18 19:43:37;;;;;;;56.50;9.03;;;;;;;29.50;39.18;100710.73;4851201;59;1140939;-80
2021/06/18 19:48:42;;;;;;;67.87;9.70;;;;;;;29.38;39.52;100704.77;4851075;59;1140850;-78
2021/06/18 19:53:50;;;;;;;45.95;8.35;;;;;;;29.26;39.72;100713.98;4814118;59;1140763;-83
2021/06/18 19:58:56;;;;;;;39.78;8.28;;;;;;;29.01;40.03;100716.41;4851127;59;1140762;-83
2021/06/18 20:04:02;;;;;;;55.05;9.13;;;;;;;28.74;40.87;100713.76;4851295;59;1140707;-82
2021/06/18 20:09:08;;;;;;;41.13;7.72;;;;;;;28.50;41.53;100725.66;4837980;59;1141069;-80
2021/06/18 20:14:14;;;;;;;12.18;5.05;;;;;;;28.31;42.28;100721.63;4792694;59;1140721;-78
2021/06/18 20:19:21;;;;;;;10.78;6.03;;;;;;;28.06;42.68;100726.86;4851123;59;1140796;-79
2021/06/18 20:24:27;;;;;;;16.10;6.82;;;;;;;27.95;43.82;100734.73;4800878;59;1140770;-82
2021/06/18 20:29:33;;;;;;;16.80;7.78;;;;;;;27.87;43.99;100732.30;4775843;60;1140762;-80
2021/06/18 20:34:42;;;;;;;132.00;17.62;;;;;;;27.71;44.05;100732.08;4776068;60;1140656;-79
2021/06/18 20:39:47;;;;;;;32.65;10.50;;;;;;;27.65;44.50;100729.76;4799966;59;1144791;-82
2021/06/18 20:44:53;;;;;;;27.80;9.20;;;;;;;27.69;44.96;100736.38;4810427;60;1142771;-83
2021/06/18 20:50:00;;;;;;;38.10;9.35;;;;;;;27.61;45.10;100737.52;4850849;59;1140807;-82
2021/06/18 20:55:08;;;;;;;25.27;8.30;;;;;;;27.57;45.25;100733.58;4808255;59;1140653;-82
2021/06/18 21:00:17;;;;;;;17.87;6.90;;;;;;;27.55;45.38;100729.39;4778655;60;1140774;-77
2021/06/18 21:05:25;;;;;;;21.75;6.62;;;;;;;27.48;45.58;100733.55;4814160;59;1140909;-81
2021/06/18 21:10:31;;;;;;;11.75;5.75;;;;;;;27.43;45.83;100727.12;4831164;58;1140858;-80
2021/06/18 21:15:38;;;;;;;25.23;7.43;;;;;;;27.27;45.58;100719.85;4817942;59;1141274;-78
2021/06/18 21:20:44;;;;;;;12.28;6.95;;;;;;;27.15;45.90;100726.24;4810441;60;1140723;-83
2021/06/18 21:25:52;;;;;;;14.30;6.40;;;;;;;27.07;45.95;100724.63;4799302;59;1140937;-79
2021/06/18 21:30:59;;;;;;;8.63;6.95;;;;;;;27.00;46.12;100717.08;4775826;60;1140822;-81
2021/06/18 21:36:05;;;;;;;16.17;6.80;;;;;;;26.95;46.56;100713.66;4804358;59;1138828;-80
2021/06/18 21:41:13;;;;;;;12.43;7.53;;;;;;;26.87;46.58;100709.02;4807415;59;1140771;-83
2021/06/18 21:46:18;;;;;;;14.68;6.37;;;;;;;26.73;46.90;100706.93;4822046;60;1140568;-81
2021/06/18 21:51:25;;;;;;;11.28;7.08;;;;;;;26.63;47.35;100711.47;4815001;59;1140796;-82
2021/06/18 21:56:32;;;;;;;26.73;7.47;;;;;;;26.50;47.58;100710.73;4792197;60;1140947;-80
2021/06/18 22:01:38;;;;;;;13.15;7.15;;;;;;;26.34;47.86;100710.72;4797953;60;1140766;-77
2021/06/18 22:06:44;;;;;;;12.23;7.22;;;;;;;26.16;47.97;100704.63;4824436;60;1140751;-80
2021/06/18 22:11:49;;;;;;;13.78;7.95;;;;;;;26.12;48.01;100712.08;4895633;58;1140762;-77
2021/06/18 22:16:55;;;;;;;11.60;7.95;;;;;;;26.09;47.87;100709.79;4746079;60;1140805;-80
2021/06/18 22:22:01;;;;;;;11.78;7.55;;;;;;;26.06;47.41;100711.05;4745796;61;1140968;-78
2021/06/18 22:27:07;;;;;;;76.42;10.65;;;;;;;26.05;47.23;100719.39;4745933;60;1140692;-80
2021/06/18 22:32:13;;;;;;;11.97;7.70;;;;;;;26.04;47.16;100721.27;4781751;59;1143117;-81
2021/06/18 22:37:19;;;;;;;21.87;10.58;;;;;;;26.02;47.07;100721.17;4881190;58;1140871;-80
2021/06/18 22:42:25;;;;;;;22.42;10.38;;;;;;;25.67;47.05;100719.30;4788689;59;1142788;-81
2021/06/18 22:47:31;;;;;;;17.52;10.10;;;;;;;25.33;47.95;100729.36;4803510;60;1142884;-81
2021/06/18 22:52:38;;;;;;;14.15;8.18;;;;;;;25.14;48.22;100719.38;4881787;58;1142870;-79
2021/06/18 22:57:45;;;;;;;18.07;8.60;;;;;;;25.20;47.69;100709.91;4884631;58;1140780;-80
2021/06/18 23:02:51;;;;;;;12.15;8.03;;;;;;;25.33;47.12;100717.18;4804088;60;1140895;-80
2021/06/18 23:07:58;;;;;;;9.30;8.10;;;;;;;25.41;46.65;100710.69;4881668;58;1140911;-79
2021/06/18 23:13:04;;;;;;;11.53;8.30;;;;;;;25.49;46.23;100707.78;4908848;58;1138758;-83
2021/06/18 23:18:10;;;;;;;13.78;9.10;;;;;;;25.51;45.74;100701.08;4955637;58;1140896;-81